createdAt,value
2022-08-03T00:22:50.469Z,99.90
2022-08-03T00:25:17.551Z,99.90
2022-08-03T00:27:44.646Z,99.90
2022-08-03T00:30:11.832Z,99.90
2022-08-03T00:32:45.162Z,99.90
2022-08-03T00:35:20.460Z,99.90
2022-08-03T00:38:00.239Z,99.90
2022-08-03T00:40:27.424Z,99.90
2022-08-03T00:42:55.950Z,99.90
2022-08-03T00:45:24.218Z,99.90
2022-08-03T00:47:51.523Z,99.90
2022-08-03T00:50:19.493Z,99.90
2022-08-03T00:52:47.312Z,99.90
2022-08-03T00:55:14.367Z,99.90
2022-08-03T00:57:42.244Z,99.90
2022-08-03T01:00:10.613Z,99.90
2022-08-03T01:02:38.457Z,99.90
2022-08-03T01:05:07.727Z,99.90
2022-08-03T01:07:50.130Z,99.90
2022-08-03T01:10:17.009Z,99.90
2022-08-03T01:12:48.983Z,99.90
2022-08-03T01:15:34.361Z,99.90
2022-08-03T01:18:14.025Z,99.90
2022-08-03T01:20:43.030Z,99.90
2022-08-03T01:23:22.021Z,99.90
2022-08-03T01:26:00.253Z,99.90
2022-08-03T01:28:27.335Z,99.90
2022-08-03T01:30:57.141Z,99.90
2022-08-03T01:33:31.415Z,99.90
2022-08-03T01:36:00.679Z,99.90
2022-08-03T01:38:29.614Z,99.90
2022-08-03T01:40:57.057Z,99.90
2022-08-03T01:44:26.355Z,99.90
2022-08-03T01:46:15.687Z,99.90
2022-08-03T01:48:43.441Z,99.90
2022-08-03T01:51:11.069Z,99.90
2022-08-03T01:53:39.622Z,99.90
2022-08-03T01:56:06.792Z,99.90
2022-08-03T01:58:35.184Z,99.90
2022-08-03T02:01:03.062Z,99.90
2022-08-03T02:03:30.127Z,99.90
2022-08-03T02:06:40.957Z,99.90
2022-08-03T02:08:45.616Z,99.90
2022-08-03T02:11:12.880Z,99.90
2022-08-03T02:13:40.690Z,99.90
2022-08-03T02:16:08.043Z,99.90
2022-08-03T02:18:35.529Z,99.90
2022-08-03T02:21:10.781Z,99.90
2022-08-03T02:23:38.652Z,99.90
2022-08-03T02:26:07.194Z,99.90
2022-08-03T02:28:38.085Z,99.90
2022-08-03T02:31:07.733Z,99.90
2022-08-03T02:33:37.794Z,99.90
2022-08-03T02:36:05.729Z,99.90
2022-08-03T02:38:36.757Z,99.90
2022-08-03T02:41:05.652Z,99.90
2022-08-03T02:43:56.782Z,99.90
2022-08-03T02:46:24.864Z,99.90
2022-08-03T02:48:52.380Z,99.90
2022-08-03T02:51:20.224Z,99.90
2022-08-03T02:53:47.823Z,99.90
2022-08-03T02:56:15.282Z,99.90
2022-08-03T02:58:44.459Z,99.90
2022-08-03T03:01:12.330Z,99.90
2022-08-03T03:03:44.896Z,99.90
2022-08-03T03:06:13.342Z,99.90
2022-08-03T03:08:42.467Z,99.90
2022-08-03T03:11:10.531Z,99.90
2022-08-03T03:13:38.302Z,99.90
2022-08-03T03:16:06.264Z,99.90
2022-08-03T03:18:33.991Z,99.90
2022-08-03T03:21:01.784Z,99.90
2022-08-03T03:23:29.444Z,99.90
2022-08-03T03:25:58.814Z,99.90
2022-08-03T03:28:26.006Z,99.90
2022-08-03T03:30:53.551Z,99.90
2022-08-03T03:33:22.007Z,99.90
2022-08-03T03:35:49.376Z,99.90
2022-08-03T03:38:16.321Z,99.90
2022-08-03T03:40:43.842Z,99.90
2022-08-03T03:43:11.779Z,99.90
2022-08-03T03:45:41.018Z,99.90
2022-08-03T03:48:08.037Z,99.90
2022-08-03T03:50:43.156Z,99.90
2022-08-03T03:53:11.439Z,99.90
2022-08-03T03:55:59.594Z,99.90
2022-08-03T03:58:25.768Z,99.90
2022-08-03T04:00:54.249Z,99.90
2022-08-03T04:03:21.335Z,99.90
2022-08-03T04:06:20.756Z,99.90
2022-08-03T04:09:06.306Z,99.90
2022-08-03T04:11:36.212Z,99.90
2022-08-03T04:14:11.212Z,99.90
2022-08-03T04:16:43.684Z,99.90
2022-08-03T04:19:14.327Z,99.90
2022-08-03T04:21:44.702Z,99.90
2022-08-03T04:24:12.346Z,99.90
2022-08-03T04:26:41.150Z,99.90
2022-08-03T04:29:09.432Z,99.90
2022-08-03T04:31:36.969Z,99.90
2022-08-03T04:34:04.708Z,99.90
2022-08-03T04:36:32.942Z,99.90
2022-08-03T04:39:08.727Z,99.90
2022-08-03T04:42:04.750Z,99.90
2022-08-03T04:44:28.375Z,99.90
2022-08-03T04:46:56.694Z,99.90
2022-08-03T04:49:24.245Z,99.90
2022-08-03T04:51:51.393Z,99.90
2022-08-03T04:54:18.425Z,99.90
2022-08-03T04:56:45.460Z,99.90
2022-08-03T04:59:13.313Z,99.90
2022-08-03T05:01:41.612Z,99.90
2022-08-03T05:04:08.669Z,99.90
2022-08-03T05:06:35.774Z,99.90
2022-08-03T05:09:02.961Z,99.90
2022-08-03T05:11:31.197Z,99.90
2022-08-03T05:13:58.135Z,99.90
2022-08-03T05:16:26.650Z,99.90
2022-08-03T05:18:53.942Z,99.90
2022-08-03T05:21:21.057Z,99.90
2022-08-03T05:23:47.973Z,99.90
2022-08-03T05:26:15.322Z,99.90
2022-08-03T05:28:50.780Z,99.90
2022-08-03T05:31:18.797Z,99.90
2022-08-03T05:33:46.139Z,99.90
2022-08-03T05:36:13.517Z,99.90
2022-08-03T05:38:40.467Z,99.90
2022-08-03T05:41:21.155Z,99.90
2022-08-03T05:43:50.465Z,99.90
2022-08-03T05:46:18.461Z,99.90
2022-08-03T05:48:45.599Z,99.90
2022-08-03T05:51:12.814Z,99.90
2022-08-03T05:53:41.254Z,99.90
2022-08-03T05:56:13.786Z,99.90
2022-08-03T05:58:48.716Z,99.90
2022-08-03T06:01:16.999Z,99.90
2022-08-03T06:03:44.733Z,99.90
2022-08-03T06:06:12.599Z,99.90
2022-08-03T06:08:40.286Z,99.90
2022-08-03T06:11:07.336Z,99.90
2022-08-03T06:13:34.334Z,99.90
2022-08-03T06:16:01.286Z,99.90
2022-08-03T06:18:28.425Z,99.90
2022-08-03T06:21:09.600Z,99.90
2022-08-03T06:23:54.427Z,99.90
2022-08-03T06:26:23.467Z,99.90
2022-08-03T06:28:52.157Z,99.90
2022-08-03T06:31:20.741Z,99.90
2022-08-03T06:34:31.457Z,99.90
2022-08-03T06:36:34.447Z,99.90
2022-08-03T06:39:01.792Z,99.90
2022-08-03T06:41:28.791Z,99.90
2022-08-03T06:44:03.173Z,99.90
2022-08-03T06:46:31.485Z,99.90
2022-08-03T06:48:58.394Z,99.90
2022-08-03T06:52:05.038Z,99.90
2022-08-03T06:54:12.455Z,99.90
2022-08-03T06:56:39.335Z,99.90
2022-08-03T06:59:06.155Z,99.90
2022-08-03T07:01:33.566Z,99.90
2022-08-03T07:04:01.347Z,99.90
2022-08-03T07:06:28.202Z,99.90
2022-08-03T07:08:59.221Z,99.90
2022-08-03T07:11:26.426Z,99.90
2022-08-03T07:13:53.301Z,99.90
2022-08-03T07:16:20.582Z,99.90
2022-08-03T07:18:47.468Z,99.90
2022-08-03T07:21:16.223Z,99.90
2022-08-03T07:23:43.096Z,99.90
2022-08-03T07:26:09.991Z,99.90
2022-08-03T07:28:36.850Z,99.70
2022-08-03T07:31:03.709Z,99.90
2022-08-03T07:33:30.614Z,99.90
2022-08-03T07:35:57.505Z,99.90
2022-08-03T07:38:27.247Z,99.90
2022-08-03T07:40:55.622Z,99.90
2022-08-03T07:43:23.040Z,99.90
2022-08-03T07:45:50.885Z,99.90
2022-08-03T07:48:17.897Z,99.90
2022-08-03T07:50:44.849Z,99.90
2022-08-03T07:53:11.922Z,99.90
2022-08-03T07:55:38.856Z,99.90
2022-08-03T07:58:07.024Z,99.90
2022-08-03T08:00:34.203Z,99.90
2022-08-03T08:03:01.207Z,99.90
2022-08-03T08:05:28.499Z,99.90
2022-08-03T08:07:55.661Z,99.90
2022-08-03T08:10:23.210Z,99.90
2022-08-03T08:12:50.273Z,99.90
2022-08-03T08:15:17.298Z,99.90
2022-08-03T08:17:59.887Z,99.90
2022-08-03T08:20:31.753Z,99.90
2022-08-03T08:23:02.781Z,99.90
2022-08-03T08:25:30.774Z,99.90
2022-08-03T08:28:29.507Z,99.90
2022-08-03T08:30:46.942Z,99.90
2022-08-03T08:33:23.165Z,99.90
2022-08-03T08:35:51.757Z,99.90
2022-08-03T08:38:18.678Z,99.90
2022-08-03T08:40:45.790Z,99.90
2022-08-03T08:43:12.742Z,99.90
2022-08-03T08:45:40.902Z,99.90
2022-08-03T08:48:08.537Z,99.90
2022-08-03T08:50:37.428Z,99.90
2022-08-03T08:53:09.763Z,99.90
2022-08-03T08:55:58.203Z,99.90
2022-08-03T08:58:26.443Z,99.90
2022-08-03T09:00:53.527Z,99.90
2022-08-03T09:03:29.668Z,99.90
2022-08-03T09:05:59.569Z,99.90
2022-08-03T09:08:26.522Z,99.90
2022-08-03T09:10:53.433Z,99.90
2022-08-03T09:13:20.361Z,99.90
2022-08-03T09:15:57.196Z,99.90
2022-08-03T09:18:32.682Z,99.90
2022-08-03T09:21:31.127Z,99.90
2022-08-03T09:24:03.853Z,99.90
2022-08-03T09:26:31.860Z,99.90
2022-08-03T09:29:14.408Z,99.90
2022-08-03T09:32:11.332Z,99.90
2022-08-03T09:34:38.204Z,99.90
2022-08-03T09:37:15.012Z,99.90
2022-08-03T09:39:42.499Z,99.90
2022-08-03T09:42:15.003Z,99.90
2022-08-03T09:44:49.722Z,99.90
2022-08-03T09:47:17.978Z,99.90
2022-08-03T09:49:57.635Z,99.90
2022-08-03T09:52:37.637Z,99.90
2022-08-03T09:56:30.732Z,99.90
2022-08-03T09:58:07.253Z,99.90
2022-08-03T10:00:52.353Z,99.90
2022-08-03T10:03:19.292Z,99.90
2022-08-03T10:05:46.333Z,99.90
2022-08-03T10:08:16.753Z,99.90
2022-08-03T10:10:44.645Z,99.90
2022-08-03T10:13:13.314Z,99.90
2022-08-03T10:16:21.519Z,99.90
2022-08-03T10:18:28.200Z,99.90
2022-08-03T10:20:56.984Z,99.90
2022-08-03T10:23:25.068Z,99.90
2022-08-03T10:25:54.930Z,99.90
2022-08-03T10:28:22.446Z,99.90
2022-08-03T10:30:51.114Z,99.90
2022-08-03T10:33:51.013Z,99.90
2022-08-03T10:36:06.945Z,99.90
2022-08-03T10:38:37.971Z,99.90
2022-08-03T10:41:05.215Z,99.90
2022-08-03T10:43:52.376Z,99.90
2022-08-03T10:46:20.799Z,99.90
2022-08-03T10:48:48.867Z,99.90
2022-08-03T10:51:16.293Z,99.90
2022-08-03T10:53:54.860Z,99.90
2022-08-03T10:56:52.735Z,99.90
2022-08-03T10:59:40.420Z,99.90
2022-08-03T11:02:10.000Z,99.90
2022-08-03T11:04:36.836Z,99.90
2022-08-03T11:07:23.603Z,99.90
2022-08-03T11:09:54.784Z,99.90
2022-08-03T11:12:31.208Z,99.90
2022-08-03T11:15:03.144Z,99.90
2022-08-03T11:17:30.063Z,99.90
2022-08-03T11:19:58.506Z,99.90
2022-08-03T11:22:26.081Z,99.90
2022-08-03T11:24:57.405Z,98.50
2022-08-03T11:27:28.134Z,97.20
2022-08-03T11:30:01.962Z,95.60
2022-08-03T11:32:38.297Z,95.00
2022-08-03T11:35:18.797Z,92.40
2022-08-03T11:38:03.015Z,92.80
2022-08-03T11:40:45.421Z,93.70
2022-08-03T11:43:31.638Z,96.10
2022-08-03T11:46:03.378Z,96.30
2022-08-03T11:48:43.177Z,96.70
2022-08-03T11:51:26.632Z,96.00
2022-08-03T11:53:57.629Z,96.00
2022-08-03T11:56:24.933Z,94.00
2022-08-03T11:59:18.754Z,95.90
2022-08-03T12:01:41.884Z,94.00
2022-08-03T12:04:08.781Z,94.10
2022-08-03T12:06:54.887Z,95.00
2022-08-03T12:09:22.289Z,93.90
2022-08-03T12:11:59.632Z,94.00
2022-08-03T12:14:49.019Z,91.30
2022-08-03T12:17:14.251Z,92.30
2022-08-03T12:19:44.730Z,91.00
2022-08-03T12:22:11.611Z,91.10
2022-08-03T12:24:42.625Z,92.40
2022-08-03T12:27:09.633Z,92.00
2022-08-03T12:29:36.807Z,90.70
2022-08-03T12:32:03.832Z,90.90
2022-08-03T12:34:47.541Z,90.90
2022-08-03T12:37:22.349Z,91.10
2022-08-03T12:40:03.576Z,93.10
2022-08-03T12:42:35.029Z,90.10
2022-08-03T12:45:20.805Z,86.90
2022-08-03T12:47:54.584Z,88.10
2022-08-03T12:50:40.010Z,85.50
2022-08-03T12:53:08.983Z,85.70
2022-08-03T12:55:56.734Z,90.10
2022-08-03T12:58:33.952Z,90.20
2022-08-03T13:01:01.760Z,88.50
2022-08-03T13:03:42.418Z,87.10
2022-08-03T13:06:16.727Z,87.20
2022-08-03T13:08:44.471Z,87.20
2022-08-03T13:11:19.117Z,86.80
2022-08-03T13:13:47.018Z,88.60
2022-08-03T13:16:18.979Z,90.30
2022-08-03T13:18:48.903Z,87.60
2022-08-03T13:21:16.433Z,89.00
2022-08-03T13:23:43.830Z,88.60
2022-08-03T13:26:11.282Z,90.80
2022-08-03T13:28:38.606Z,89.90
2022-08-03T13:31:06.332Z,91.60
2022-08-03T13:33:34.001Z,84.50
2022-08-03T13:36:00.898Z,84.50
2022-08-03T13:38:27.824Z,84.50
2022-08-03T13:40:55.542Z,86.50
2022-08-03T13:43:22.829Z,88.20
2022-08-03T13:45:53.589Z,86.20
2022-08-03T13:48:37.679Z,86.70
2022-08-03T13:51:05.648Z,85.90
2022-08-03T13:53:49.467Z,84.40
2022-08-03T13:56:16.347Z,83.40
2022-08-03T13:58:43.199Z,84.60
2022-08-03T14:01:10.179Z,83.40
2022-08-03T14:03:37.073Z,86.10
2022-08-03T14:06:03.962Z,88.30
2022-08-03T14:08:30.979Z,88.10
2022-08-03T14:10:58.350Z,81.70
2022-08-03T14:13:25.223Z,86.20
2022-08-03T14:15:52.177Z,82.30
2022-08-03T14:18:28.445Z,82.70
2022-08-03T14:21:00.645Z,81.90
2022-08-03T14:23:32.520Z,80.90
2022-08-03T14:25:59.857Z,88.10
2022-08-03T14:28:26.786Z,90.60
2022-08-03T14:30:54.627Z,90.90
2022-08-03T14:33:21.605Z,84.70
2022-08-03T14:35:48.760Z,84.70
2022-08-03T14:38:15.675Z,88.30
2022-08-03T14:40:42.782Z,88.70
2022-08-03T14:43:09.740Z,90.40
2022-08-03T14:45:36.674Z,87.90
2022-08-03T14:50:28.445Z,86.20
2022-08-03T14:50:52.953Z,82.50
2022-08-03T14:53:20.150Z,80.00
2022-08-03T14:55:50.435Z,78.80
2022-08-03T14:58:21.449Z,80.30
2022-08-03T15:00:49.535Z,82.40
2022-08-03T15:03:17.027Z,83.10
2022-08-03T15:05:44.816Z,79.00
2022-08-03T15:08:11.925Z,80.50
2022-08-03T15:10:43.950Z,80.50
2022-08-03T15:13:12.662Z,79.30
2022-08-03T15:15:39.623Z,77.30
2022-08-03T15:18:06.822Z,80.20
2022-08-03T15:20:43.888Z,80.30
2022-08-03T15:23:11.833Z,75.70
2022-08-03T15:26:29.500Z,74.00
2022-08-03T15:28:25.595Z,76.80
2022-08-03T15:30:53.938Z,76.70
2022-08-03T15:33:21.245Z,77.40
2022-08-03T15:35:48.168Z,78.70
2022-08-03T15:38:15.049Z,80.80
2022-08-03T15:40:41.955Z,81.50
2022-08-03T15:43:08.910Z,79.20
2022-08-03T15:45:36.535Z,83.20
2022-08-03T15:48:06.987Z,79.60
2022-08-03T15:50:33.921Z,79.20
2022-08-03T15:53:00.766Z,81.50
2022-08-03T15:55:27.870Z,82.00
2022-08-03T15:59:10.002Z,78.60
2022-08-03T16:00:43.772Z,76.50
2022-08-03T16:03:10.855Z,79.00
2022-08-03T16:05:37.887Z,80.60
2022-08-03T16:08:07.939Z,81.70
2022-08-03T16:10:37.240Z,81.40
2022-08-03T16:13:04.096Z,82.90
2022-08-03T16:15:31.026Z,82.10
2022-08-03T16:17:57.851Z,83.20
2022-08-03T16:20:31.210Z,85.40
2022-08-03T16:23:10.870Z,83.90
2022-08-03T16:25:38.468Z,83.20
2022-08-03T16:28:07.655Z,83.30
2022-08-03T16:30:40.653Z,84.80
2022-08-03T16:33:07.654Z,85.10
2022-08-03T16:35:34.574Z,85.60
2022-08-03T16:38:02.218Z,85.80
2022-08-03T16:40:31.402Z,87.00
2022-08-03T16:42:58.295Z,88.00
2022-08-03T16:45:25.214Z,88.40
2022-08-03T16:48:01.582Z,88.40
2022-08-03T16:50:33.022Z,88.30
2022-08-03T16:52:59.946Z,87.20
2022-08-03T16:55:50.142Z,85.40
2022-08-03T16:58:15.278Z,85.40
2022-08-03T17:00:44.288Z,86.30
2022-08-03T17:03:20.517Z,87.60
2022-08-03T17:05:51.309Z,88.50
2022-08-03T17:08:26.566Z,88.80
2022-08-03T17:10:54.992Z,90.00
2022-08-03T17:13:22.783Z,89.70
2022-08-03T17:15:57.636Z,90.40
2022-08-03T17:18:26.775Z,90.90
2022-08-03T17:20:55.041Z,91.70
2022-08-03T17:23:35.836Z,92.40
2022-08-03T17:26:04.139Z,94.00
2022-08-03T17:28:48.948Z,95.40
2022-08-03T17:31:23.274Z,95.40
2022-08-03T17:33:57.917Z,98.90
2022-08-03T17:36:37.253Z,99.90
2022-08-03T17:39:14.702Z,99.90
2022-08-03T17:41:49.895Z,99.90
2022-08-03T17:44:31.965Z,99.90
2022-08-03T17:47:04.874Z,99.90
2022-08-03T17:49:40.152Z,99.90
2022-08-03T17:52:19.594Z,99.90
2022-08-03T17:55:55.939Z,99.90
2022-08-03T17:58:02.185Z,99.90
2022-08-03T18:00:44.914Z,99.90
2022-08-03T18:03:30.438Z,99.90
2022-08-03T18:06:22.659Z,99.90
2022-08-03T18:08:59.991Z,99.90
2022-08-03T18:11:35.376Z,99.90
2022-08-03T18:14:15.903Z,99.90
2022-08-03T18:16:52.015Z,99.90
2022-08-03T18:19:21.353Z,99.90
2022-08-03T18:22:09.995Z,99.90
2022-08-03T18:24:37.446Z,99.90
2022-08-03T18:27:06.506Z,99.90
2022-08-03T18:29:35.645Z,99.90
2022-08-03T18:32:06.099Z,99.90
2022-08-03T18:34:36.370Z,99.90
2022-08-03T18:37:08.701Z,99.90
2022-08-03T18:39:49.810Z,99.90
2022-08-03T18:45:54.932Z,99.90
2022-08-03T18:48:05.311Z,99.90
2022-08-03T18:54:02.494Z,99.90
2022-08-03T18:56:21.969Z,99.90
2022-08-03T18:59:02.599Z,99.90
2022-08-03T19:01:59.952Z,99.90
2022-08-03T19:04:34.060Z,99.90
2022-08-03T19:07:07.901Z,99.90
2022-08-03T19:09:45.758Z,99.90
2022-08-03T19:12:30.687Z,99.90
2022-08-03T19:15:03.315Z,99.90
2022-08-03T19:17:33.264Z,99.90
2022-08-03T19:20:06.529Z,99.90
2022-08-03T19:22:33.512Z,99.90
2022-08-03T19:25:02.143Z,99.90
2022-08-03T19:27:30.410Z,99.90
2022-08-03T19:30:02.089Z,99.90
2022-08-03T19:32:31.710Z,99.90
2022-08-03T19:34:59.813Z,99.90
2022-08-03T19:37:37.994Z,99.90
2022-08-03T19:40:10.905Z,99.90
2022-08-03T19:42:40.705Z,99.90
2022-08-03T19:45:11.350Z,99.90
2022-08-03T19:47:58.345Z,99.90
2022-08-03T19:50:25.266Z,99.90
2022-08-03T19:52:53.065Z,99.90
2022-08-03T19:55:20.502Z,99.90
2022-08-03T19:57:49.195Z,99.90
2022-08-03T20:00:19.641Z,99.90
2022-08-03T20:02:47.012Z,99.90
2022-08-03T20:05:18.535Z,99.90
2022-08-03T20:07:47.740Z,99.90
2022-08-03T20:10:16.140Z,99.90
2022-08-03T20:12:44.130Z,99.90
2022-08-03T20:15:11.318Z,99.90
2022-08-03T20:17:56.308Z,99.90
2022-08-03T20:20:33.315Z,99.90
2022-08-03T20:23:01.282Z,99.90
2022-08-03T20:25:39.534Z,99.90
2022-08-03T20:28:26.805Z,99.90
2022-08-03T20:30:54.003Z,99.90
2022-08-03T20:33:27.901Z,99.90
2022-08-03T20:36:07.968Z,99.90
2022-08-03T20:38:40.886Z,99.90
2022-08-03T20:41:10.794Z,99.90
2022-08-03T20:43:37.665Z,99.90
2022-08-03T20:46:30.952Z,99.90
2022-08-03T20:48:51.601Z,99.90
2022-08-03T20:51:20.047Z,99.90
2022-08-03T20:54:09.673Z,99.90
2022-08-03T20:56:53.114Z,99.90
2022-08-03T20:59:20.203Z,99.90
2022-08-03T21:01:47.295Z,99.90
2022-08-03T21:04:14.802Z,99.90
2022-08-03T21:06:54.188Z,99.90
2022-08-03T21:09:33.422Z,99.90
2022-08-03T21:12:07.802Z,99.90
2022-08-03T21:13:00.574Z,99.90
2022-08-03T21:13:04.956Z,99.90
2022-08-03T21:14:39.722Z,99.90
2022-08-03T21:17:25.035Z,99.90
2022-08-03T21:19:56.255Z,99.90
2022-08-03T21:22:26.011Z,99.90
2022-08-03T21:24:55.997Z,99.90
2022-08-03T21:27:24.046Z,99.90
2022-08-03T21:29:53.162Z,99.90
2022-08-03T21:32:32.769Z,99.90
2022-08-03T21:35:00.591Z,99.90
2022-08-03T21:37:28.201Z,99.90
2022-08-03T21:39:55.933Z,99.90
2022-08-03T21:42:26.311Z,99.90
2022-08-03T21:44:53.462Z,99.90
2022-08-03T21:47:24.435Z,99.90
2022-08-03T21:50:08.548Z,99.90
2022-08-03T21:52:42.234Z,99.90
2022-08-03T21:55:20.497Z,99.90
2022-08-03T21:57:51.359Z,99.90
2022-08-03T22:00:19.267Z,99.90
2022-08-03T22:02:54.448Z,99.90
2022-08-03T22:05:42.887Z,99.90
2022-08-03T22:08:09.357Z,99.90
2022-08-03T22:10:36.240Z,99.90
2022-08-03T22:13:03.251Z,99.90
2022-08-03T22:15:30.600Z,99.90
2022-08-03T22:17:58.678Z,99.90
2022-08-03T22:20:25.701Z,99.90
2022-08-03T22:22:56.038Z,99.90
2022-08-03T22:25:29.236Z,99.90
2022-08-03T22:27:57.142Z,99.90
2022-08-03T22:30:24.010Z,99.90
2022-08-03T22:32:52.917Z,99.90
2022-08-03T22:35:20.706Z,99.90
2022-08-03T22:37:49.239Z,99.90
2022-08-03T22:40:16.980Z,99.90
2022-08-03T22:42:50.522Z,99.90
2022-08-03T22:45:45.831Z,99.90
2022-08-03T22:48:07.549Z,99.90
2022-08-03T22:50:34.964Z,99.90
2022-08-03T22:53:02.070Z,99.90
2022-08-03T22:55:29.031Z,99.90
2022-08-03T22:57:56.462Z,99.90
2022-08-03T23:00:23.708Z,99.90
2022-08-03T23:02:51.229Z,99.90
2022-08-03T23:06:01.826Z,99.90
2022-08-03T23:08:11.056Z,99.90
2022-08-03T23:10:40.692Z,99.90
2022-08-03T23:13:09.623Z,99.90
2022-08-03T23:15:36.589Z,99.90
2022-08-03T23:18:04.332Z,99.90
2022-08-03T23:20:31.243Z,99.90
2022-08-03T23:22:58.758Z,99.90
2022-08-03T23:25:26.693Z,99.90
2022-08-03T23:28:05.858Z,99.90
2022-08-03T23:30:34.603Z,99.90
2022-08-03T23:33:02.380Z,99.90
2022-08-03T23:36:20.046Z,99.90
2022-08-03T23:38:35.133Z,99.90
2022-08-03T23:41:03.366Z,99.90
2022-08-03T23:43:46.973Z,99.90
2022-08-03T23:46:19.939Z,99.90
2022-08-03T23:48:46.882Z,99.90
2022-08-03T23:51:19.799Z,99.90
2022-08-03T23:54:02.146Z,99.90
2022-08-03T23:56:47.827Z,99.90
2022-08-03T23:59:21.952Z,99.90
